Vinegar Bend, Alabama
Current Conditions -  °F | °C
As of 9:56 AM on Saturday 25 Oct 2014 (Local Time) from KMOB Reporting Station
Few Clouds Few Clouds  
Wind Chill: 66°   Ceiling: Unl
Heat Index: 66°   Visibility: 10mi
Dew Point: 50°   Wind: 12mph
Humidity: 56%   Direction: 30°NNE
Pressure: 30.16"   Gusts: NA
Location:  31.26°N, 88.34°W
Report Text: KMOB 251456Z 03010KT 10SM FEW250 19/10 A3016 RMK AO2 SLP210 T01890100 51015
Loading
Personal Weather Stations






























Interactive Weather Map
Tropical Storm Tracking
New forecast layout! Learn more

10-Day Weather Forecast

Advertisements
Track Severe Weather on mobile